NCAR-RAP Real-Time Weather Data

Output produced by METARs form (19 June 2019  10:48 UTC)
found at http://weather.rap.ucar.edu/surface/
 
KMCW 190953Z AUTO 02005KT 10SM CLR 12/12 A2985 RMK AO2 SLP099 T01220122 $
KMCW 190853Z AUTO 00000KT 10SM CLR 13/13 A2986 RMK AO2 SLP104 T01280128 56013 $
KMCW 190753Z AUTO 16003KT 10SM CLR 13/13 A2988 RMK AO2 SLP110 T01330133
KMCW 190653Z AUTO 34005KT 10SM CLR 14/13 A2988 RMK AO2 SLP111 T01440133
KMCW 190553Z AUTO 34005KT 10SM CLR 16/14 A2990 RMK AO2 SLP117 T01560139 10217 20150 402330150 58001
KMCW 190453Z AUTO 34003KT 10SM CLR 16/14 A2991 RMK AO2 SLP122 T01610144
KMCW 190353Z AUTO 33004KT 10SM CLR 17/15 A2992 RMK AO2 SLP122 T01720150
KMCW 190253Z AUTO 34004KT 10SM BKN060 18/16 A2991 RMK AO2 SLP120 T01830161 55001
KMCW 190153Z AUTO 34005KT 10SM BKN060 19/16 A2990 RMK AO2 SLP117 T01890156
KMCW 190053Z AUTO 35004KT 10SM CLR 20/17 A2991 RMK AO2 SLP121 T02000167
KMCW 182353Z AUTO 33005KT 10SM BKN049 22/13 A2991 RMK AO2 SLP120 T02170133 10233 20206 56010
KMCW 182253Z AUTO 34004KT 10SM SCT045 23/13 A2991 RMK AO2 SLP120 T02280133
KMCW 182153Z AUTO 33005KT 10SM BKN045 OVC050 22/14 A2993 RMK AO2 SLP125 T02220144
KMCW 182053Z AUTO 33004KT 10SM OVC041 22/14 A2994 RMK AO2 SLP130 T02220144 56014
KMCW 181953Z AUTO 04004KT 10SM BKN037 22/14 A2995 RMK AO2 SLP133 T02220144
KMCW 181853Z AUTO 03007KT 10SM SCT029 22/15 A2997 RMK AO2 SLP139 T02220150
KMCW 181753Z AUTO VRB04KT 10SM CLR 21/17 A2999 RMK AO2 SLP145 60010 T02060172 10206 20156 58007
KMCW 181653Z AUTO 34007KT 10SM BKN070 BKN110 19/16 A3000 RMK AO2 RAE00 SLP150 P0000 T01890161
KMCW 181553Z AUTO 01005KT 10SM -RA SCT050 BKN085 OVC100 18/16 A3000 RMK AO2 SLP150 P0000 T01830156
KMCW 181453Z AUTO 35007KT 10SM -RA OVC055 17/16 A3001 RMK AO2 RAE30B48 SLP154 P0001 60010 T01720161 51003
KMCW 181353Z AUTO 34004KT 10SM -RA OVC039 17/16 A3001 RMK AO2 SLP154 P0003 T01670161